createdAt,value
2017-06-21T00:01:37.041Z,19.48
2017-06-21T00:04:05.406Z,19.41
2017-06-21T00:06:33.785Z,19.40
2017-06-21T00:09:02.094Z,19.38
2017-06-21T00:11:30.432Z,19.41
2017-06-21T00:13:58.872Z,19.27
2017-06-21T00:16:27.230Z,19.31
2017-06-21T00:18:55.554Z,19.35
2017-06-21T00:21:24.062Z,19.24
2017-06-21T00:23:52.409Z,19.27
2017-06-21T00:26:20.749Z,19.36
2017-06-21T00:28:49.090Z,19.32
2017-06-21T00:31:17.439Z,19.32
2017-06-21T00:33:45.814Z,19.21
2017-06-21T00:36:14.219Z,19.15
2017-06-21T00:38:42.571Z,19.16
2017-06-21T00:41:10.983Z,19.17
2017-06-21T00:43:39.357Z,19.21
2017-06-21T00:46:07.768Z,19.14
2017-06-21T00:48:36.120Z,19.15
2017-06-21T00:51:04.568Z,19.26
2017-06-21T00:53:32.919Z,19.17
2017-06-21T00:56:01.256Z,19.18
2017-06-21T00:58:29.610Z,19.15
2017-06-21T01:00:57.941Z,19.06
2017-06-21T01:03:26.339Z,18.99
2017-06-21T01:05:54.704Z,18.99
2017-06-21T01:08:23.069Z,18.90
2017-06-21T01:10:51.409Z,18.93
2017-06-21T01:13:19.758Z,18.93
2017-06-21T01:15:48.101Z,18.92
2017-06-21T01:18:16.444Z,18.97
2017-06-21T01:20:44.798Z,18.87
2017-06-21T01:23:13.142Z,18.78
2017-06-21T01:25:41.499Z,18.71
2017-06-21T01:28:09.857Z,18.69
2017-06-21T01:30:38.190Z,18.63
2017-06-21T01:33:06.599Z,18.61
2017-06-21T01:35:35.012Z,18.56
2017-06-21T01:38:03.527Z,18.67
2017-06-21T01:40:31.864Z,18.74
2017-06-21T01:43:00.219Z,18.88
2017-06-21T01:45:28.554Z,18.96
2017-06-21T01:47:56.881Z,19.03
2017-06-21T01:50:25.233Z,19.08
2017-06-21T01:52:53.569Z,19.14
2017-06-21T01:55:21.978Z,19.24
2017-06-21T01:57:50.326Z,19.19
2017-06-21T02:00:18.686Z,19.25
2017-06-21T02:02:47.064Z,19.25
2017-06-21T02:05:15.467Z,19.33
2017-06-21T02:07:43.801Z,19.21
2017-06-21T02:10:12.171Z,19.01
2017-06-21T02:12:40.512Z,18.72
2017-06-21T02:15:08.892Z,18.41
2017-06-21T02:17:37.324Z,18.43
2017-06-21T02:20:05.777Z,18.31
2017-06-21T02:22:34.140Z,18.24
2017-06-21T02:25:02.538Z,18.22
2017-06-21T02:27:30.905Z,18.22
2017-06-21T02:29:59.268Z,18.44
2017-06-21T02:32:27.633Z,18.61
2017-06-21T02:34:55.995Z,18.66
2017-06-21T02:37:24.396Z,18.68
2017-06-21T02:39:52.737Z,18.58
2017-06-21T02:42:21.098Z,18.51
2017-06-21T02:44:49.482Z,18.50
2017-06-21T02:47:17.826Z,18.37
2017-06-21T02:49:46.193Z,18.28
2017-06-21T02:52:14.546Z,18.13
2017-06-21T02:54:42.885Z,18.10
2017-06-21T02:57:11.241Z,18.12
2017-06-21T02:59:39.601Z,18.53
2017-06-21T03:02:07.945Z,18.66
2017-06-21T03:04:36.332Z,18.72
2017-06-21T03:07:04.670Z,18.76
2017-06-21T03:09:33.039Z,18.85
2017-06-21T03:12:01.408Z,18.81
2017-06-21T03:14:29.839Z,18.52
2017-06-21T03:16:58.194Z,18.50
2017-06-21T03:19:26.529Z,18.41
2017-06-21T03:21:54.886Z,18.34
2017-06-21T03:24:23.231Z,18.24
2017-06-21T03:26:51.577Z,18.23
2017-06-21T03:29:19.926Z,18.33
2017-06-21T03:31:48.264Z,18.44
2017-06-21T03:34:16.618Z,18.49
2017-06-21T03:36:44.983Z,18.55
2017-06-21T03:39:13.322Z,18.58
2017-06-21T03:41:41.691Z,18.57
2017-06-21T03:44:10.044Z,18.60
2017-06-21T03:46:38.393Z,18.66
2017-06-21T03:49:06.738Z,18.42
2017-06-21T03:51:35.077Z,18.43
2017-06-21T03:54:03.453Z,18.49
2017-06-21T03:56:32.879Z,18.51
2017-06-21T03:59:01.279Z,18.63
2017-06-21T04:01:29.616Z,18.70
2017-06-21T04:04:00.597Z,18.79
2017-06-21T04:06:29.363Z,18.79
2017-06-21T04:08:57.777Z,18.85
2017-06-21T04:11:26.119Z,18.85
2017-06-21T04:13:54.458Z,18.85
2017-06-21T04:16:22.900Z,19.00
2017-06-21T04:18:51.236Z,19.08
2017-06-21T04:21:19.585Z,19.19
2017-06-21T04:23:48.042Z,19.34
2017-06-21T04:26:16.382Z,19.54
2017-06-21T04:28:44.768Z,19.59
2017-06-21T04:31:13.113Z,19.80
2017-06-21T04:33:41.465Z,19.93
2017-06-21T04:36:09.833Z,20.05
2017-06-21T04:38:38.184Z,20.14
2017-06-21T04:41:06.546Z,20.11
2017-06-21T04:43:34.925Z,20.14
2017-06-21T04:46:03.272Z,20.29
2017-06-21T04:48:31.614Z,20.43
2017-06-21T04:50:59.993Z,20.60
2017-06-21T04:53:28.330Z,20.78
2017-06-21T04:55:56.688Z,20.91
2017-06-21T04:58:25.036Z,21.12
2017-06-21T05:00:53.404Z,21.23
2017-06-21T05:03:21.758Z,21.32
2017-06-21T05:05:50.101Z,21.44
2017-06-21T05:08:18.469Z,21.60
2017-06-21T05:10:46.850Z,21.77
2017-06-21T05:13:15.173Z,21.88
2017-06-21T05:15:43.525Z,21.98
2017-06-21T05:18:11.874Z,22.07
2017-06-21T05:20:40.217Z,22.19
2017-06-21T05:23:08.593Z,22.29
2017-06-21T05:25:36.986Z,22.37
2017-06-21T05:28:05.321Z,22.46
2017-06-21T05:30:33.757Z,22.58
2017-06-21T05:33:02.121Z,22.59
2017-06-21T05:35:30.466Z,22.75
2017-06-21T05:37:58.829Z,23.01
2017-06-21T05:40:27.185Z,23.13
2017-06-21T05:42:55.564Z,23.24
2017-06-21T05:45:23.951Z,23.37
2017-06-21T05:47:52.286Z,23.43
2017-06-21T05:50:20.694Z,23.59
2017-06-21T05:52:49.010Z,23.59
2017-06-21T05:55:17.376Z,23.70
2017-06-21T05:57:45.729Z,23.84
2017-06-21T06:00:14.113Z,24.00
2017-06-21T06:02:42.469Z,24.05
2017-06-21T06:05:10.878Z,24.21
2017-06-21T06:07:39.201Z,24.38
2017-06-21T06:10:07.599Z,24.57
2017-06-21T06:12:35.953Z,24.63
2017-06-21T06:15:04.324Z,24.68
2017-06-21T06:17:33.357Z,24.79
2017-06-21T06:20:01.726Z,25.02
2017-06-21T06:22:30.100Z,25.09
2017-06-21T06:24:58.529Z,25.21
2017-06-21T06:27:26.870Z,25.36
2017-06-21T06:29:55.208Z,25.32
2017-06-21T06:32:23.549Z,25.44
2017-06-21T06:34:51.928Z,25.62
2017-06-21T06:37:20.268Z,25.77
2017-06-21T06:39:48.662Z,25.81
2017-06-21T06:42:17.009Z,25.95
2017-06-21T06:44:45.357Z,26.03
2017-06-21T06:47:13.742Z,25.99
2017-06-21T06:49:42.157Z,26.09
2017-06-21T06:52:10.521Z,26.12
2017-06-21T06:54:38.925Z,26.13
2017-06-21T06:57:07.286Z,26.24
2017-06-21T06:59:35.646Z,26.36
2017-06-21T07:02:04.006Z,26.53
2017-06-21T07:04:32.361Z,26.79
2017-06-21T07:07:00.741Z,26.99
2017-06-21T07:09:29.138Z,27.08
2017-06-21T07:11:57.478Z,27.18
2017-06-21T07:14:25.821Z,27.33
2017-06-21T07:16:54.193Z,27.22
2017-06-21T07:19:22.577Z,27.38
2017-06-21T07:21:50.902Z,27.56
2017-06-21T07:24:19.253Z,27.72
2017-06-21T07:26:47.593Z,27.65
2017-06-21T07:29:15.933Z,27.82
2017-06-21T07:31:44.277Z,27.85
2017-06-21T07:34:12.633Z,28.20
2017-06-21T07:36:40.973Z,28.15
2017-06-21T07:39:09.348Z,28.23
2017-06-21T07:41:37.705Z,28.30
2017-06-21T07:44:06.095Z,28.34
2017-06-21T07:46:34.442Z,28.64
2017-06-21T07:49:02.823Z,28.47
2017-06-21T07:51:31.257Z,28.45
2017-06-21T07:53:59.609Z,28.58
2017-06-21T07:56:27.950Z,28.82
2017-06-21T07:58:56.349Z,28.50
2017-06-21T08:01:24.707Z,28.41
2017-06-21T08:03:53.086Z,28.84
2017-06-21T08:06:21.443Z,28.98
2017-06-21T08:08:49.798Z,29.00
2017-06-21T08:11:18.137Z,29.07
2017-06-21T08:13:46.494Z,29.09
2017-06-21T08:16:14.858Z,29.46
2017-06-21T08:18:43.201Z,29.61
2017-06-21T08:21:11.564Z,29.77
2017-06-21T08:23:39.904Z,29.74
2017-06-21T08:26:08.255Z,29.88
2017-06-21T08:28:36.596Z,30.22
2017-06-21T08:31:04.947Z,30.23
2017-06-21T08:33:33.287Z,30.32
2017-06-21T08:36:01.633Z,30.55
2017-06-21T08:38:29.982Z,30.52
2017-06-21T08:40:58.425Z,30.64
2017-06-21T08:43:26.765Z,30.79
2017-06-21T08:45:55.133Z,30.70
2017-06-21T08:48:23.481Z,30.59
2017-06-21T08:50:51.829Z,30.85
2017-06-21T08:53:20.176Z,30.94
2017-06-21T08:55:48.529Z,30.94
2017-06-21T08:58:16.896Z,31.23
2017-06-21T09:00:45.241Z,31.53
2017-06-21T09:03:13.587Z,31.59
2017-06-21T09:05:41.937Z,31.69
2017-06-21T09:08:10.366Z,31.65
2017-06-21T09:10:38.709Z,31.62
2017-06-21T09:13:07.049Z,31.51
2017-06-21T09:15:35.401Z,31.52
2017-06-21T09:18:03.760Z,31.38
2017-06-21T09:20:32.137Z,31.75
2017-06-21T09:23:00.482Z,32.06
2017-06-21T09:25:28.867Z,32.04
2017-06-21T09:27:57.213Z,32.25
2017-06-21T09:30:25.582Z,32.14
2017-06-21T09:32:54.010Z,32.40
2017-06-21T09:35:22.486Z,32.62
2017-06-21T09:37:50.813Z,32.55
2017-06-21T09:40:19.759Z,32.56
2017-06-21T09:42:48.093Z,32.69
2017-06-21T09:45:16.484Z,32.67
2017-06-21T09:47:44.868Z,32.65
2017-06-21T09:50:13.367Z,32.84
2017-06-21T09:52:41.708Z,33.26
2017-06-21T09:55:10.077Z,33.46
2017-06-21T09:57:38.417Z,33.52
2017-06-21T10:00:06.803Z,33.38
2017-06-21T10:02:35.169Z,33.13
2017-06-21T10:05:03.696Z,32.92
2017-06-21T10:07:32.030Z,33.40
2017-06-21T10:10:00.386Z,33.42
2017-06-21T10:12:28.713Z,33.38
2017-06-21T10:14:57.081Z,34.06
2017-06-21T10:17:25.420Z,34.04
2017-06-21T10:19:53.796Z,33.92
2017-06-21T10:22:22.143Z,34.11
2017-06-21T10:24:50.488Z,34.14
2017-06-21T10:27:19.168Z,34.29
2017-06-21T10:29:47.508Z,34.41
2017-06-21T10:32:15.854Z,34.36
2017-06-21T10:34:44.198Z,34.57
2017-06-21T10:37:12.546Z,34.91
2017-06-21T10:39:40.922Z,34.77
2017-06-21T10:42:09.269Z,35.00
2017-06-21T10:44:37.604Z,33.56
2017-06-21T10:47:05.949Z,33.16
2017-06-21T10:49:34.277Z,32.85
2017-06-21T10:52:02.612Z,32.88
2017-06-21T10:54:30.950Z,33.06
2017-06-21T10:56:59.300Z,33.02
2017-06-21T10:59:27.652Z,33.54
2017-06-21T11:01:55.977Z,33.68
2017-06-21T11:04:24.305Z,34.15
2017-06-21T11:06:52.650Z,34.53
2017-06-21T11:09:20.993Z,34.09
2017-06-21T11:11:49.338Z,34.10
2017-06-21T11:14:17.688Z,32.94
2017-06-21T11:16:46.067Z,32.84
2017-06-21T11:19:14.426Z,32.78
2017-06-21T11:21:42.755Z,33.18
2017-06-21T11:24:11.124Z,33.35
2017-06-21T11:26:39.439Z,33.28
2017-06-21T11:29:07.792Z,33.98
2017-06-21T11:31:36.349Z,33.84
2017-06-21T11:34:04.694Z,33.95
2017-06-21T11:36:33.033Z,34.59
2017-06-21T11:39:01.433Z,35.31
2017-06-21T11:41:29.785Z,34.83
2017-06-21T11:43:58.124Z,35.01
2017-06-21T11:46:26.579Z,35.27
2017-06-21T11:48:54.897Z,35.38
2017-06-21T11:51:23.246Z,35.33
2017-06-21T11:53:51.716Z,35.51
2017-06-21T11:56:20.070Z,34.44
2017-06-21T11:58:48.391Z,33.92
2017-06-21T12:01:16.724Z,33.47
2017-06-21T12:03:45.057Z,33.73
2017-06-21T12:06:13.411Z,33.37
2017-06-21T12:08:41.801Z,32.72
2017-06-21T12:11:10.117Z,32.38
2017-06-21T12:13:38.493Z,32.41
2017-06-21T12:16:06.830Z,32.59
2017-06-21T12:18:35.388Z,32.65
2017-06-21T12:21:03.735Z,32.73
2017-06-21T12:23:32.090Z,32.59
2017-06-21T12:26:00.422Z,32.48
2017-06-21T12:28:28.765Z,32.40
2017-06-21T12:30:57.108Z,32.25
2017-06-21T12:33:25.493Z,32.41
2017-06-21T12:35:53.827Z,32.42
2017-06-21T12:38:22.201Z,32.26
2017-06-21T12:40:50.543Z,32.20
2017-06-21T12:43:18.869Z,31.95
2017-06-21T12:45:47.201Z,30.38
2017-06-21T12:48:15.567Z,29.48
2017-06-21T12:50:43.893Z,28.88
2017-06-21T12:53:12.221Z,28.43
2017-06-21T12:55:40.561Z,27.97
2017-06-21T12:58:08.914Z,27.34
2017-06-21T13:00:37.259Z,26.58
2017-06-21T13:03:05.636Z,26.22
2017-06-21T13:05:33.994Z,26.00
2017-06-21T13:08:02.355Z,25.52
2017-06-21T13:10:30.684Z,24.79
2017-06-21T13:12:59.022Z,24.44
2017-06-21T13:15:27.388Z,24.02
2017-06-21T13:17:55.708Z,23.44
2017-06-21T13:20:24.079Z,23.17
2017-06-21T13:22:52.448Z,22.96
2017-06-21T13:25:20.838Z,22.79
2017-06-21T13:27:49.162Z,22.65
2017-06-21T13:30:17.567Z,22.64
2017-06-21T13:32:45.886Z,22.65
2017-06-21T13:35:14.282Z,22.74
2017-06-21T13:37:42.628Z,22.76
2017-06-21T13:40:11.058Z,23.11
2017-06-21T13:42:39.400Z,23.09
2017-06-21T13:45:07.789Z,23.37
2017-06-21T13:47:36.176Z,23.93
2017-06-21T13:50:04.564Z,24.40
2017-06-21T13:52:32.975Z,24.99
2017-06-21T13:55:01.343Z,25.43
2017-06-21T13:57:29.671Z,26.31
2017-06-21T13:59:58.013Z,27.74
2017-06-21T14:02:26.417Z,28.84
2017-06-21T14:04:54.764Z,29.02
2017-06-21T14:07:23.113Z,28.84
2017-06-21T14:09:51.460Z,28.44
2017-06-21T14:12:19.824Z,28.12
2017-06-21T14:14:48.160Z,27.68
2017-06-21T14:17:16.497Z,27.35
2017-06-21T14:19:44.862Z,27.46
2017-06-21T14:22:13.257Z,27.83
2017-06-21T14:24:41.594Z,27.71
2017-06-21T14:27:10.198Z,28.23
2017-06-21T14:29:38.535Z,29.51
2017-06-21T14:32:06.858Z,30.82
2017-06-21T14:34:35.230Z,30.87
2017-06-21T14:37:03.603Z,30.59
2017-06-21T14:39:31.929Z,30.19
2017-06-21T14:42:00.273Z,31.20
2017-06-21T14:44:28.605Z,32.12
2017-06-21T14:46:56.934Z,33.50
2017-06-21T14:49:25.352Z,35.55
2017-06-21T14:51:53.682Z,34.76
2017-06-21T14:54:22.011Z,34.99
2017-06-21T14:56:50.336Z,35.23
2017-06-21T14:59:18.734Z,35.48
2017-06-21T15:01:47.057Z,35.53
2017-06-21T15:04:15.406Z,35.57
2017-06-21T15:06:43.757Z,36.70
2017-06-21T15:09:12.406Z,37.01
2017-06-21T15:11:40.914Z,37.68
2017-06-21T15:14:09.245Z,37.05
2017-06-21T15:16:37.671Z,36.26
2017-06-21T15:19:06.884Z,35.56
2017-06-21T15:21:35.249Z,34.28
2017-06-21T15:24:03.600Z,33.32
2017-06-21T15:26:31.946Z,32.70
2017-06-21T15:29:00.285Z,32.41
2017-06-21T15:31:28.713Z,32.14
2017-06-21T15:33:57.078Z,31.43
2017-06-21T15:36:25.472Z,31.26
2017-06-21T15:38:53.874Z,30.82
2017-06-21T15:41:22.237Z,30.64
2017-06-21T15:43:50.570Z,30.43
2017-06-21T15:46:19.073Z,30.49
2017-06-21T15:48:47.505Z,30.56
2017-06-21T15:51:15.862Z,31.44
2017-06-21T15:53:44.221Z,33.22
2017-06-21T15:56:12.602Z,33.47
2017-06-21T15:58:40.949Z,33.45
2017-06-21T16:01:09.292Z,32.92
2017-06-21T16:03:37.800Z,32.78
2017-06-21T16:06:06.206Z,32.43
2017-06-21T16:08:34.553Z,32.04
2017-06-21T16:11:02.895Z,31.33
2017-06-21T16:13:31.320Z,31.33
2017-06-21T16:15:59.711Z,31.34
2017-06-21T16:18:28.070Z,31.35
2017-06-21T16:20:56.381Z,31.16
2017-06-21T16:23:24.722Z,30.90
2017-06-21T16:25:53.079Z,30.58
2017-06-21T16:28:21.435Z,30.40
2017-06-21T16:30:49.741Z,30.60
2017-06-21T16:33:18.113Z,30.31
2017-06-21T16:35:46.443Z,30.04
2017-06-21T16:38:14.777Z,29.93
2017-06-21T16:40:43.109Z,29.80
2017-06-21T16:43:11.455Z,29.54
2017-06-21T16:45:39.806Z,29.82
2017-06-21T16:48:08.156Z,29.63
2017-06-21T16:50:36.543Z,29.47
2017-06-21T16:53:04.890Z,29.30
2017-06-21T16:55:33.250Z,29.18
2017-06-21T16:58:01.587Z,29.10
2017-06-21T17:00:29.945Z,30.36
2017-06-21T17:02:58.284Z,31.73
2017-06-21T17:05:26.659Z,30.58
2017-06-21T17:07:54.993Z,30.52
2017-06-21T17:10:23.385Z,29.76
2017-06-21T17:12:51.742Z,29.59
2017-06-21T17:15:20.140Z,29.41
2017-06-21T17:17:48.519Z,29.68
2017-06-21T17:20:16.919Z,31.18
2017-06-21T17:22:45.278Z,32.58
2017-06-21T17:25:13.705Z,33.27
2017-06-21T17:27:42.037Z,34.43
2017-06-21T17:30:10.498Z,34.69
2017-06-21T17:32:38.868Z,34.82
2017-06-21T17:35:07.211Z,34.55
2017-06-21T17:37:35.716Z,35.16
2017-06-21T17:40:04.244Z,35.20
2017-06-21T17:42:32.593Z,34.85
2017-06-21T17:45:00.934Z,34.63
2017-06-21T17:47:29.424Z,34.91
2017-06-21T17:49:57.850Z,34.67
2017-06-21T17:52:26.231Z,34.66
2017-06-21T17:54:55.141Z,34.94
2017-06-21T17:57:23.489Z,34.92
2017-06-21T17:59:51.821Z,34.19
2017-06-21T18:02:20.194Z,34.13
2017-06-21T18:04:48.512Z,34.27
2017-06-21T18:07:16.840Z,33.85
2017-06-21T18:09:45.181Z,32.97
2017-06-21T18:12:13.558Z,32.72
2017-06-21T18:14:42.005Z,32.07
2017-06-21T18:17:10.480Z,31.40
2017-06-21T18:19:38.813Z,30.79
2017-06-21T18:22:07.141Z,30.27
2017-06-21T18:24:35.514Z,29.71
2017-06-21T18:27:03.879Z,29.31
2017-06-21T18:29:32.212Z,28.76
2017-06-21T18:32:00.554Z,28.09
2017-06-21T18:34:29.250Z,28.02
2017-06-21T18:36:57.589Z,27.66
2017-06-21T18:39:25.940Z,27.24
2017-06-21T18:41:54.373Z,26.83
2017-06-21T18:44:22.758Z,26.51
2017-06-21T18:46:51.100Z,26.19
2017-06-21T18:49:19.453Z,25.87
2017-06-21T18:51:47.990Z,25.66
2017-06-21T18:54:16.360Z,25.37
2017-06-21T18:56:44.721Z,25.25
2017-06-21T18:59:13.085Z,24.93
2017-06-21T19:01:42.546Z,24.77
2017-06-21T19:04:11.752Z,24.66
2017-06-21T19:06:40.099Z,24.46
2017-06-21T19:09:08.441Z,24.31
2017-06-21T19:11:36.803Z,24.17
2017-06-21T19:14:05.162Z,24.06
2017-06-21T19:16:33.529Z,24.15
2017-06-21T19:19:01.912Z,24.06
2017-06-21T19:21:30.352Z,24.02
2017-06-21T19:23:58.740Z,23.91
2017-06-21T19:26:27.131Z,23.85
2017-06-21T19:28:55.457Z,23.79
2017-06-21T19:31:23.809Z,23.61
2017-06-21T19:33:52.274Z,23.41
2017-06-21T19:36:20.610Z,23.31
2017-06-21T19:38:48.976Z,23.14
2017-06-21T19:41:17.342Z,23.05
2017-06-21T19:43:45.754Z,23.08
2017-06-21T19:46:14.105Z,22.93
2017-06-21T19:48:42.488Z,22.93
2017-06-21T19:51:10.856Z,22.95
2017-06-21T19:53:39.336Z,22.85
2017-06-21T19:56:07.721Z,22.83
2017-06-21T19:58:36.074Z,22.75
2017-06-21T20:01:04.523Z,22.73
2017-06-21T20:03:32.882Z,22.70
2017-06-21T20:06:01.243Z,22.68
2017-06-21T20:08:29.677Z,22.73
2017-06-21T20:10:58.029Z,22.72
2017-06-21T20:13:26.373Z,22.74
2017-06-21T20:15:54.718Z,22.68
2017-06-21T20:18:23.077Z,22.68
2017-06-21T20:20:51.434Z,22.60
2017-06-21T20:23:19.847Z,22.55
2017-06-21T20:25:48.187Z,22.51
2017-06-21T20:28:16.595Z,22.55
2017-06-21T20:30:44.925Z,22.58
2017-06-21T20:33:13.294Z,22.52
2017-06-21T20:35:41.664Z,22.43
2017-06-21T20:38:10.029Z,22.36
2017-06-21T20:40:39.249Z,22.32
2017-06-21T20:43:07.610Z,22.19
2017-06-21T20:45:36.053Z,22.21
2017-06-21T20:48:04.416Z,22.17
2017-06-21T20:50:32.781Z,22.06
2017-06-21T20:53:01.215Z,21.93
2017-06-21T20:55:29.586Z,21.83
2017-06-21T20:57:57.934Z,21.81
2017-06-21T21:00:26.298Z,21.72
2017-06-21T21:02:54.638Z,21.51
2017-06-21T21:05:23.119Z,21.42
2017-06-21T21:07:51.465Z,21.37
2017-06-21T21:10:19.852Z,21.32
2017-06-21T21:12:48.185Z,21.29
2017-06-21T21:15:16.585Z,21.43
2017-06-21T21:17:44.925Z,21.56
2017-06-21T21:20:13.330Z,21.62
2017-06-21T21:22:41.677Z,21.50
2017-06-21T21:25:10.070Z,21.43
2017-06-21T21:27:38.408Z,21.44
2017-06-21T21:30:06.805Z,21.49
2017-06-21T21:32:35.145Z,21.46
2017-06-21T21:35:03.545Z,21.33
2017-06-21T21:37:31.902Z,21.20
2017-06-21T21:40:00.268Z,21.16
2017-06-21T21:42:28.698Z,21.13
2017-06-21T21:44:57.070Z,21.04
2017-06-21T21:47:26.534Z,20.97
2017-06-21T21:49:54.914Z,20.92
2017-06-21T21:52:23.269Z,20.87
2017-06-21T21:54:52.712Z,20.82
2017-06-21T21:57:21.085Z,20.74
2017-06-21T21:59:49.448Z,20.63
2017-06-21T22:02:17.802Z,20.77
2017-06-21T22:04:46.178Z,20.87
2017-06-21T22:07:14.533Z,20.88
2017-06-21T22:09:42.897Z,20.83
2017-06-21T22:12:11.239Z,20.76
2017-06-21T22:14:39.593Z,20.71
2017-06-21T22:17:08.634Z,20.63
2017-06-21T22:19:36.973Z,20.56
2017-06-21T22:22:05.357Z,20.51
2017-06-21T22:24:33.703Z,20.43
2017-06-21T22:27:02.069Z,20.35
2017-06-21T22:29:30.421Z,20.26
2017-06-21T22:31:58.772Z,20.11
2017-06-21T22:34:27.133Z,19.99
2017-06-21T22:36:55.497Z,19.89
2017-06-21T22:39:23.829Z,19.79
2017-06-21T22:41:52.189Z,19.72
2017-06-21T22:44:20.540Z,19.64
2017-06-21T22:46:48.919Z,19.62
2017-06-21T22:49:17.388Z,19.59
2017-06-21T22:51:45.733Z,19.51
2017-06-21T22:54:14.097Z,19.42
2017-06-21T22:56:42.445Z,19.39
2017-06-21T22:59:10.818Z,19.32
2017-06-21T23:01:39.162Z,19.27
2017-06-21T23:04:07.521Z,19.46
2017-06-21T23:06:35.877Z,19.51
2017-06-21T23:09:04.221Z,19.50
2017-06-21T23:11:32.566Z,19.46
2017-06-21T23:14:00.925Z,19.46
2017-06-21T23:16:29.463Z,19.36
2017-06-21T23:18:57.790Z,19.22
2017-06-21T23:21:26.184Z,19.18
2017-06-21T23:23:54.519Z,19.19
2017-06-21T23:26:22.862Z,19.09
2017-06-21T23:28:51.211Z,19.04
2017-06-21T23:31:19.570Z,19.03
2017-06-21T23:33:47.962Z,18.96
2017-06-21T23:36:16.317Z,18.88
2017-06-21T23:38:44.676Z,18.80
2017-06-21T23:41:13.023Z,18.61
2017-06-21T23:43:41.370Z,18.57
2017-06-21T23:46:09.716Z,18.53
2017-06-21T23:48:38.059Z,18.55
2017-06-21T23:51:06.406Z,18.57
2017-06-21T23:53:34.758Z,18.59
2017-06-21T23:56:03.114Z,18.65
2017-06-21T23:58:31.465Z,18.71
